Alderson, West Virginia
Current Conditions -  °F | °C
As of 2:35 AM on Saturday 01 Nov 2014 (Local Time) from KLWB Reporting Station
Drizzle Drizzle  
Wind Chill:   Ceiling: 3200
Heat Index:   Visibility: 7mi
Dew Point:   Wind: 0mph
Humidity: 93%   Direction: NA
Pressure: 29.78"   Gusts: NA
Location:  37.73°N, 80.64°W
Report Text: KLWB 010635Z AUTO 00000KT 7SM DZ SCT026 OVC032 04/03 A2978 RMK AO2 T00400030
Loading
Personal Weather Stations






























Interactive Weather Map
Tropical Storm Tracking
New forecast layout! Learn more

10-Day Weather Forecast

Advertisements
Track Severe Weather on mobile